Time;durP1;ratioP1;P1;durP2;ratioP2;P2;SDS_P1;SDS_P2;PMS_P1;PMS_P2;Temp;Humidity;BMP_temperature;BMP_pressure;BME280_temperature;BME280_humidity;BME280_pressure;Samples;Min_cycle;Max_cycle;Signal;HPM_P1;HPM_P2
2021/01/31 00:02:20;;;;;;;11.40;7.70;;;0.10;99.90;;;;;;4980589;28;20436;-54
2021/01/31 00:04:47;;;;;;;9.50;6.50;;;0.10;99.90;;;;;;4981006;28;20597;-55
2021/01/31 00:07:15;;;;;;;13.13;7.67;;;0.00;99.90;;;;;;4981012;29;20454;-53
2021/01/31 00:09:42;;;;;;;14.20;6.60;;;0.00;99.90;;;;;;4981022;29;20443;-53
2021/01/31 00:12:09;;;;;;;12.77;7.97;;;-0.10;99.90;;;;;;4981047;29;20444;-56
2021/01/31 00:14:35;;;;;;;9.30;7.53;;;-0.20;99.90;;;;;;4981067;29;20454;-55
2021/01/31 00:17:04;;;;;;;23.17;12.13;;;-0.20;99.90;;;;;;4981295;28;20500;-54
2021/01/31 00:19:30;;;;;;;10.27;7.20;;;-0.30;99.90;;;;;;4980977;28;20448;-56
2021/01/31 00:21:57;;;;;;;12.30;6.70;;;-0.30;99.90;;;;;;4980903;29;20440;-55
2021/01/31 00:24:28;;;;;;;12.33;7.30;;;-0.40;99.90;;;;;;4980495;29;20487;-58
2021/01/31 00:26:54;;;;;;;10.70;6.20;;;-0.40;99.90;;;;;;4980216;29;20428;-57
2021/01/31 00:29:21;;;;;;;13.40;8.50;;;-0.30;99.90;;;;;;4980075;29;20428;-57
2021/01/31 00:31:48;;;;;;;11.27;8.00;;;-0.40;99.90;;;;;;4978909;29;20527;-56
2021/01/31 00:34:15;;;;;;;15.50;9.00;;;-0.50;99.90;;;;;;4995381;28;20422;-55
2021/01/31 00:36:41;;;;;;;24.43;12.70;;;-0.50;99.90;;;;;;4997829;28;20434;-57
2021/01/31 00:39:08;;;;;;;17.53;9.20;;;-0.50;99.90;;;;;;4998350;28;20447;-52
2021/01/31 00:41:36;;;;;;;14.10;8.20;;;-0.60;99.90;;;;;;4999422;28;20458;-52
2021/01/31 00:44:03;;;;;;;13.77;8.20;;;-0.60;99.90;;;;;;4999417;28;20505;-54
2021/01/31 00:46:33;;;;;;;16.67;8.90;;;-0.60;99.90;;;;;;4999538;28;20522;-53
2021/01/31 00:49:00;;;;;;;11.70;7.13;;;-0.70;99.90;;;;;;4999602;28;20434;-51
2021/01/31 00:51:26;;;;;;;17.63;8.80;;;-0.70;99.90;;;;;;4999631;28;20431;-54
2021/01/31 00:53:52;;;;;;;12.37;8.30;;;-0.70;99.90;;;;;;4999898;28;20443;-57
2021/01/31 00:56:19;;;;;;;14.40;8.70;;;-0.70;99.90;;;;;;4999565;28;20490;-52
2021/01/31 00:58:46;;;;;;;11.40;8.57;;;-0.70;99.90;;;;;;4999352;28;20431;-52
2021/01/31 01:01:13;;;;;;;16.60;8.63;;;-0.70;99.90;;;;;;4997450;28;20479;-56
2021/01/31 01:03:40;;;;;;;16.87;8.60;;;-0.70;99.90;;;;;;4997357;28;20573;-56
2021/01/31 01:06:06;;;;;;;15.80;10.30;;;-0.70;99.90;;;;;;4996976;28;20454;-58
2021/01/31 01:08:34;;;;;;;17.33;9.77;;;-0.80;99.90;;;;;;4997319;28;20941;-55
2021/01/31 01:11:01;;;;;;;15.33;8.90;;;-0.80;99.90;;;;;;4997588;28;20529;-53
2021/01/31 01:13:28;;;;;;;16.90;9.17;;;-0.80;99.90;;;;;;4996914;28;20442;-54
2021/01/31 01:15:55;;;;;;;14.07;8.00;;;-0.80;99.90;;;;;;4996509;28;20443;-54
2021/01/31 01:18:22;;;;;;;16.70;9.83;;;-0.80;99.90;;;;;;4996933;28;20447;-55
2021/01/31 01:20:49;;;;;;;13.23;7.93;;;-0.80;99.90;;;;;;4997170;28;20894;-55
2021/01/31 01:23:15;;;;;;;13.97;9.20;;;-0.90;99.90;;;;;;4997410;28;20474;-48
2021/01/31 01:25:41;;;;;;;15.67;9.30;;;-0.90;99.90;;;;;;4997008;28;20473;-48
2021/01/31 01:28:11;;;;;;;16.17;8.97;;;-0.90;99.90;;;;;;4997261;28;20506;-53
2021/01/31 01:30:37;;;;;;;14.23;9.23;;;-0.90;99.90;;;;;;4999456;28;20458;-54
2021/01/31 01:33:04;;;;;;;17.30;10.77;;;-0.90;99.90;;;;;;4999392;28;20470;-55
2021/01/31 01:35:31;;;;;;;16.23;10.10;;;-1.00;99.90;;;;;;4998313;28;20435;-54
2021/01/31 01:37:57;;;;;;;11.93;8.80;;;-1.00;99.90;;;;;;4996824;28;20446;-54
2021/01/31 01:40:26;;;;;;;17.17;9.53;;;-1.10;99.90;;;;;;4996733;28;20501;-54
2021/01/31 01:42:53;;;;;;;12.07;9.30;;;-1.10;99.90;;;;;;4996813;28;20465;-55
2021/01/31 01:45:21;;;;;;;18.57;9.00;;;-1.20;99.90;;;;;;4996268;28;20443;-55
2021/01/31 01:47:50;;;;;;;15.53;9.83;;;-1.30;99.90;;;;;;4980432;28;20477;-54
2021/01/31 01:50:37;;;;;;;20.37;10.80;;;-1.40;99.90;;;;;;4996791;28;20447;-56
2021/01/31 01:53:04;;;;;;;18.50;11.53;;;-1.40;99.90;;;;;;4997482;28;20422;-57
2021/01/31 01:55:34;;;;;;;18.50;10.00;;;-1.40;99.90;;;;;;4996508;28;20536;-56
2021/01/31 01:58:04;;;;;;;15.53;10.20;;;-1.40;99.90;;;;;;4996613;28;20421;-55
2021/01/31 02:00:31;;;;;;;21.10;10.33;;;-1.50;99.90;;;;;;4996624;28;20497;-56
2021/01/31 02:03:00;;;;;;;23.23;12.93;;;-1.50;99.90;;;;;;4996218;28;20439;-55
2021/01/31 02:05:27;;;;;;;16.67;10.27;;;-1.50;99.90;;;;;;4996729;28;20437;-55
2021/01/31 02:07:55;;;;;;;15.47;10.73;;;-1.50;99.90;;;;;;4996121;28;20447;-55
2021/01/31 02:10:23;;;;;;;26.87;10.80;;;-1.50;99.90;;;;;;4996072;28;20451;-54
2021/01/31 02:12:51;;;;;;;28.13;11.90;;;-1.60;99.90;;;;;;4997032;28;20437;-54
2021/01/31 02:15:20;;;;;;;15.00;8.50;;;-1.60;99.90;;;;;;5000271;28;20435;-52
2021/01/31 02:17:58;;;;;;;16.47;11.70;;;-1.70;99.90;;;;;;5000283;28;20477;-50
2021/01/31 02:20:54;;;;;;;17.07;9.83;;;-1.80;99.90;;;;;;5000037;28;20433;-49
2021/01/31 02:24:02;;;;;;;16.13;11.00;;;-1.80;99.90;;;;;;4999695;28;20483;-50
2021/01/31 02:26:56;;;;;;;20.13;8.50;;;-1.90;99.90;;;;;;5000216;28;20437;-55
2021/01/31 02:29:51;;;;;;;19.57;10.80;;;-1.80;99.90;;;;;;4999943;28;20491;-60
2021/01/31 02:32:41;;;;;;;16.17;9.10;;;-1.90;99.90;;;;;;5000846;28;20434;-56
2021/01/31 02:35:13;;;;;;;19.43;9.10;;;-2.00;99.90;;;;;;5001610;28;20469;-51
2021/01/31 02:37:48;;;;;;;19.50;10.43;;;-2.00;99.90;;;;;;5002219;28;20446;-56
2021/01/31 02:40:21;;;;;;;21.70;9.90;;;-2.00;99.90;;;;;;4990684;28;20427;-61
2021/01/31 02:42:54;;;;;;;15.57;8.80;;;-2.10;99.90;;;;;;4992814;28;20423;-54
2021/01/31 02:45:26;;;;;;;20.13;10.53;;;-2.10;99.90;;;;;;4970172;29;20438;-56
2021/01/31 02:47:58;;;;;;;18.60;11.37;;;-2.10;99.90;;;;;;4984952;28;20433;-56
2021/01/31 02:50:29;;;;;;;26.83;11.73;;;-2.20;99.90;;;;;;4989705;28;20422;-54
2021/01/31 02:53:00;;;;;;;25.97;12.37;;;-2.20;99.90;;;;;;4999183;28;20458;-54
2021/01/31 02:55:29;;;;;;;22.63;12.17;;;-2.30;99.90;;;;;;4998385;28;20451;-53
2021/01/31 02:58:04;;;;;;;20.80;11.43;;;-2.30;99.90;;;;;;4985975;28;20424;-55
2021/01/31 03:00:35;;;;;;;15.50;9.70;;;-2.40;99.90;;;;;;4980206;29;20432;-54
2021/01/31 03:03:13;;;;;;;15.23;10.13;;;-2.40;99.90;;;;;;4996520;28;20761;-56
2021/01/31 03:05:46;;;;;;;11.77;9.07;;;-2.40;99.90;;;;;;4999749;28;20500;-49
2021/01/31 03:08:19;;;;;;;16.30;10.77;;;-2.40;99.90;;;;;;4996623;28;20423;-49
2021/01/31 03:10:51;;;;;;;19.50;10.00;;;-2.50;99.90;;;;;;4980103;29;20452;-47
2021/01/31 03:13:23;;;;;;;18.33;10.70;;;-2.50;99.90;;;;;;4979571;29;20443;-51
2021/01/31 03:15:54;;;;;;;21.57;9.30;;;-2.60;99.90;;;;;;4980194;29;20428;-48
2021/01/31 03:18:30;;;;;;;13.73;8.60;;;-2.70;99.90;;;;;;4979624;29;20432;-56
2021/01/31 03:21:02;;;;;;;14.93;8.40;;;-2.70;99.90;;;;;;4979746;29;20412;-55
2021/01/31 03:23:35;;;;;;;14.10;8.73;;;-2.80;99.90;;;;;;4979422;28;20472;-51
2021/01/31 03:26:06;;;;;;;21.73;8.80;;;-2.90;99.90;;;;;;4979838;29;20428;-50
2021/01/31 03:28:32;;;;;;;10.53;7.10;;;-2.90;99.90;;;;;;4979892;29;20455;-51
2021/01/31 03:31:02;;;;;;;14.03;7.77;;;-3.00;99.90;;;;;;4979620;29;20458;-55
2021/01/31 03:33:36;;;;;;;14.50;8.70;;;-3.10;99.90;;;;;;4980871;29;20470;-54
2021/01/31 03:36:04;;;;;;;13.00;6.70;;;-3.10;99.90;;;;;;4981516;28;20457;-54
2021/01/31 03:38:37;;;;;;;16.07;8.77;;;-3.20;99.90;;;;;;4980990;28;20456;-53
2021/01/31 03:41:07;;;;;;;12.67;7.07;;;-3.20;99.90;;;;;;4979872;29;20454;-50
2021/01/31 03:43:34;;;;;;;17.00;9.87;;;-3.30;99.90;;;;;;4979519;29;20500;-54
2021/01/31 03:46:06;;;;;;;17.30;8.80;;;-3.30;99.90;;;;;;4979021;29;20447;-55
2021/01/31 03:48:43;;;;;;;16.13;7.90;;;-3.30;99.90;;;;;;4979263;29;20424;-53
2021/01/31 03:51:11;;;;;;;26.07;9.90;;;-3.30;99.90;;;;;;4979152;29;20419;-55
2021/01/31 03:53:37;;;;;;;15.97;8.60;;;-3.30;99.90;;;;;;4978997;29;20487;-54
2021/01/31 03:56:05;;;;;;;13.70;7.70;;;-3.20;99.90;;;;;;4979731;28;20463;-55
2021/01/31 03:58:33;;;;;;;14.47;8.10;;;-3.20;99.90;;;;;;4979744;29;20451;-56
2021/01/31 04:01:04;;;;;;;14.17;6.50;;;-3.30;99.90;;;;;;4979343;29;20452;-56
2021/01/31 04:03:34;;;;;;;16.53;9.00;;;-3.20;99.90;;;;;;4979077;29;20468;-55
2021/01/31 04:06:05;;;;;;;17.57;9.50;;;-3.20;99.90;;;;;;4979162;29;20428;-54
2021/01/31 04:08:34;;;;;;;15.57;8.37;;;-3.30;99.90;;;;;;4978660;29;20440;-55
2021/01/31 04:11:00;;;;;;;20.23;8.33;;;-3.30;99.90;;;;;;4978771;29;20447;-55
2021/01/31 04:13:30;;;;;;;15.80;9.40;;;-3.30;99.90;;;;;;4979068;29;20428;-57
2021/01/31 04:15:59;;;;;;;14.80;7.83;;;-3.30;99.90;;;;;;4978449;29;20467;-54
2021/01/31 04:18:25;;;;;;;16.47;8.63;;;-3.30;99.90;;;;;;4979322;29;20456;-55
2021/01/31 04:20:52;;;;;;;23.30;8.70;;;-3.30;99.90;;;;;;4978468;29;20448;-51
2021/01/31 04:23:19;;;;;;;17.97;9.50;;;-3.30;99.90;;;;;;4979029;29;20455;-54
2021/01/31 04:25:50;;;;;;;10.87;6.43;;;-3.40;99.90;;;;;;4978625;29;20464;-55
2021/01/31 04:28:19;;;;;;;14.40;8.00;;;-3.50;99.90;;;;;;4978626;29;20438;-50
2021/01/31 04:30:47;;;;;;;20.47;8.50;;;-3.50;99.90;;;;;;4978707;29;20447;-56
2021/01/31 04:33:15;;;;;;;14.50;7.80;;;-3.40;99.90;;;;;;4979298;29;20447;-53
2021/01/31 04:35:41;;;;;;;19.00;9.07;;;-3.40;99.90;;;;;;4978274;28;20464;-51
2021/01/31 04:38:09;;;;;;;18.17;10.10;;;-3.40;99.90;;;;;;4978750;29;20447;-56
2021/01/31 04:40:36;;;;;;;18.33;7.53;;;-3.40;99.90;;;;;;4979214;29;20531;-55
2021/01/31 04:43:11;;;;;;;19.70;9.30;;;-3.40;99.90;;;;;;4978522;29;20466;-52
2021/01/31 04:45:39;;;;;;;16.17;7.57;;;-3.30;99.90;;;;;;4978356;29;20428;-53
2021/01/31 04:48:22;;;;;;;12.47;6.83;;;-3.30;99.90;;;;;;4978777;29;20436;-54
2021/01/31 04:51:02;;;;;;;10.83;6.77;;;-3.30;99.90;;;;;;4978761;29;20424;-53
2021/01/31 04:53:45;;;;;;;18.57;9.10;;;-3.30;99.90;;;;;;4979588;29;20460;-57
2021/01/31 04:56:42;;;;;;;16.60;7.50;;;-3.30;99.90;;;;;;4980030;28;20455;-57
2021/01/31 04:59:21;;;;;;;9.77;5.47;;;-3.30;99.90;;;;;;4953730;29;20491;-58
2021/01/31 05:01:50;;;;;;;11.57;7.13;;;-3.40;99.90;;;;;;4979649;29;20444;-49
2021/01/31 05:04:17;;;;;;;10.70;5.23;;;-3.40;99.90;;;;;;4978219;29;20491;-51
2021/01/31 05:06:47;;;;;;;10.37;5.70;;;-3.50;99.90;;;;;;4978801;29;20495;-51
2021/01/31 05:09:18;;;;;;;10.03;5.40;;;-3.60;99.90;;;;;;4978778;29;20447;-54
2021/01/31 05:11:54;;;;;;;14.30;6.20;;;-3.70;99.90;;;;;;4979591;28;20498;-50
2021/01/31 05:14:39;;;;;;;12.40;6.30;;;-3.80;99.90;;;;;;4979718;28;20443;-50
2021/01/31 05:17:05;;;;;;;8.47;6.40;;;-3.90;99.90;;;;;;4979619;28;20412;-65
2021/01/31 05:19:34;;;;;;;12.97;7.53;;;-4.00;99.90;;;;;;4980076;29;20444;-51
2021/01/31 05:22:00;;;;;;;8.03;5.03;;;-4.10;99.90;;;;;;4980172;28;20464;-51
2021/01/31 05:24:27;;;;;;;12.83;6.30;;;-4.00;99.90;;;;;;4979990;28;20502;-51
2021/01/31 05:26:58;;;;;;;13.23;6.00;;;-4.10;99.90;;;;;;4980148;28;20436;-54
2021/01/31 05:29:30;;;;;;;10.07;5.90;;;-4.10;99.90;;;;;;4978883;29;20447;-53
2021/01/31 05:32:02;;;;;;;11.40;6.30;;;-4.10;99.90;;;;;;4979779;29;20428;-49
2021/01/31 05:34:33;;;;;;;13.37;6.57;;;-4.10;99.90;;;;;;4979513;29;20492;-55
2021/01/31 05:37:01;;;;;;;13.27;6.07;;;-4.20;99.90;;;;;;4979415;28;20439;-57
2021/01/31 05:39:42;;;;;;;7.10;4.23;;;-4.20;99.90;;;;;;4978081;29;20432;-49
2021/01/31 05:42:12;;;;;;;9.50;5.90;;;-4.30;99.90;;;;;;4977385;29;20446;-49
2021/01/31 05:44:39;;;;;;;6.97;5.60;;;-4.30;99.90;;;;;;4977827;29;20513;-51
2021/01/31 05:47:22;;;;;;;13.53;6.80;;;-4.30;99.90;;;;;;4978109;29;20459;-54
2021/01/31 05:49:50;;;;;;;10.80;5.53;;;-4.30;99.90;;;;;;4977207;29;20443;-53
2021/01/31 05:52:32;;;;;;;9.43;4.53;;;-4.30;99.90;;;;;;4977306;29;20451;-56
2021/01/31 05:54:59;;;;;;;13.73;7.30;;;-4.40;99.90;;;;;;4976685;29;20451;-55
2021/01/31 05:57:28;;;;;;;13.43;7.30;;;-4.40;99.90;;;;;;4977533;29;20419;-60
2021/01/31 05:59:56;;;;;;;7.73;5.07;;;-4.40;99.90;;;;;;4977822;29;20459;-56
2021/01/31 06:02:24;;;;;;;10.90;6.77;;;-4.40;99.90;;;;;;4978766;29;20435;-53
2021/01/31 06:05:11;;;;;;;7.43;5.10;;;-4.40;99.90;;;;;;4977952;29;20495;-56
2021/01/31 06:07:39;;;;;;;10.00;6.57;;;-4.30;99.90;;;;;;4977301;29;20879;-55
2021/01/31 06:10:11;;;;;;;10.23;5.97;;;-4.40;99.90;;;;;;4977013;29;20435;-55
2021/01/31 06:12:42;;;;;;;10.13;6.03;;;-4.40;99.90;;;;;;4977524;28;20446;-57
2021/01/31 06:15:16;;;;;;;10.50;5.90;;;-4.30;99.90;;;;;;4977317;29;20420;-53
2021/01/31 06:17:43;;;;;;;15.43;7.63;;;-4.30;99.90;;;;;;4976774;29;20438;-55
2021/01/31 06:20:14;;;;;;;6.70;4.57;;;-4.40;99.90;;;;;;4976777;29;20443;-51
2021/01/31 06:22:42;;;;;;;10.67;5.43;;;-4.40;99.90;;;;;;4976478;29;20434;-48
2021/01/31 06:25:15;;;;;;;9.37;5.50;;;-4.30;99.90;;;;;;4976509;29;20479;-50
2021/01/31 06:27:42;;;;;;;10.40;4.40;;;-4.40;99.90;;;;;;4977075;28;20513;-50
2021/01/31 06:30:21;;;;;;;8.30;5.47;;;-4.40;99.90;;;;;;4976857;29;20455;-48
2021/01/31 06:32:50;;;;;;;18.03;5.80;;;-4.50;99.90;;;;;;4977299;29;20471;-48
2021/01/31 06:35:19;;;;;;;13.13;6.50;;;-4.50;99.90;;;;;;4976938;29;20432;-53
2021/01/31 06:38:03;;;;;;;9.53;5.77;;;-4.60;99.90;;;;;;4976620;29;20462;-48
2021/01/31 06:40:40;;;;;;;11.97;6.00;;;-4.60;99.90;;;;;;4977036;29;20467;-52
2021/01/31 06:43:20;;;;;;;10.30;6.60;;;-4.50;99.90;;;;;;4976547;29;20416;-54
2021/01/31 06:45:53;;;;;;;10.23;6.13;;;-4.50;99.90;;;;;;4976734;29;20428;-52
2021/01/31 06:48:40;;;;;;;8.90;6.53;;;-4.50;99.90;;;;;;4976716;29;20459;-53
2021/01/31 06:51:37;;;;;;;12.60;6.00;;;-4.50;99.90;;;;;;4976581;29;20448;-53
2021/01/31 06:54:41;;;;;;;12.30;6.53;;;-4.50;99.90;;;;;;4957831;29;20456;-49
2021/01/31 06:57:40;;;;;;;11.23;5.43;;;-4.50;99.90;;;;;;4976958;29;20424;-56
2021/01/31 07:00:29;;;;;;;10.37;5.33;;;-4.50;99.90;;;;;;4979394;28;20454;-55
2021/01/31 07:03:20;;;;;;;10.77;5.60;;;-4.60;99.90;;;;;;4980211;29;20432;-53
2021/01/31 07:06:02;;;;;;;12.27;5.00;;;-4.50;99.90;;;;;;4970925;28;20456;-52
2021/01/31 07:09:08;;;;;;;15.30;8.37;;;-4.50;99.90;;;;;;4980302;29;20451;-52
2021/01/31 07:11:43;;;;;;;11.23;6.73;;;-4.50;99.90;;;;;;4980656;29;20451;-53
2021/01/31 07:14:27;;;;;;;10.23;5.70;;;-4.50;99.90;;;;;;4980543;29;20420;-49
2021/01/31 07:17:02;;;;;;;10.43;5.60;;;-4.60;99.90;;;;;;4980405;29;20436;-49
2021/01/31 07:19:35;;;;;;;15.13;6.60;;;-4.70;99.90;;;;;;4981142;29;20447;-50
2021/01/31 07:22:07;;;;;;;9.73;5.60;;;-4.70;99.90;;;;;;4981925;29;20431;-55
2021/01/31 07:24:40;;;;;;;10.80;5.57;;;-4.70;99.90;;;;;;4982033;29;20472;-53
2021/01/31 07:27:13;;;;;;;17.10;8.47;;;-4.80;99.90;;;;;;4981789;29;20416;-56
2021/01/31 07:29:49;;;;;;;10.93;5.53;;;-4.90;99.90;;;;;;4980160;29;20432;-53
2021/01/31 07:32:20;;;;;;;14.97;6.73;;;-5.00;99.90;;;;;;4979699;29;20454;-53
2021/01/31 07:34:53;;;;;;;12.40;5.87;;;-5.00;99.90;;;;;;4979157;29;20770;-51
2021/01/31 07:37:21;;;;;;;13.60;5.47;;;-4.90;99.90;;;;;;4979214;29;20428;-51
2021/01/31 07:39:55;;;;;;;11.80;5.40;;;-4.90;99.90;;;;;;4979193;29;20428;-48
2021/01/31 07:42:23;;;;;;;12.90;6.60;;;-4.90;99.90;;;;;;4979480;29;20523;-55
2021/01/31 07:44:57;;;;;;;8.30;5.53;;;-4.80;99.90;;;;;;4979003;29;20490;-51
2021/01/31 07:47:24;;;;;;;11.30;7.47;;;-4.80;99.90;;;;;;4979435;29;20510;-49
2021/01/31 07:50:29;;;;;;;10.20;7.73;;;-4.70;99.90;;;;;;4979565;29;20447;-50
2021/01/31 07:52:58;;;;;;;9.30;5.37;;;-4.80;99.90;;;;;;4979477;29;20416;-51
2021/01/31 07:55:37;;;;;;;15.40;7.80;;;-4.60;99.90;;;;;;4979639;29;20475;-52
2021/01/31 07:58:09;;;;;;;10.90;7.33;;;-4.50;99.90;;;;;;4979588;28;20432;-52
2021/01/31 08:00:41;;;;;;;14.83;6.03;;;-4.40;99.90;;;;;;4979420;29;20499;-53
2021/01/31 08:03:19;;;;;;;11.10;5.43;;;-4.40;99.90;;;;;;4979620;29;20455;-56
2021/01/31 08:06:01;;;;;;;8.77;5.40;;;-4.30;99.90;;;;;;4979509;28;20463;-56
2021/01/31 08:08:52;;;;;;;7.40;5.03;;;-4.20;99.90;;;;;;4980161;29;20456;-50
2021/01/31 08:11:55;;;;;;;10.30;5.70;;;-4.20;99.90;;;;;;4959647;28;20479;-53
2021/01/31 08:17:07;;;;;;;14.17;5.93;;;-4.20;99.90;;;;;;5866996;23;20480;-51
2021/01/31 08:19:33;;;;;;;11.20;6.47;;;-4.20;99.90;;;;;;4960337;29;20424;-55
2021/01/31 08:22:08;;;;;;;11.40;5.23;;;-4.20;99.90;;;;;;4960086;29;20447;-50
2021/01/31 08:25:01;;;;;;;9.43;5.30;;;-4.20;99.90;;;;;;4950359;29;20471;-53
2021/01/31 08:27:49;;;;;;;13.90;6.73;;;-4.10;99.90;;;;;;4960169;29;20485;-56
2021/01/31 08:30:18;;;;;;;9.83;5.83;;;-4.10;99.90;;;;;;4959460;29;20425;-51
2021/01/31 08:33:15;;;;;;;8.20;4.67;;;-4.00;99.90;;;;;;4960141;29;20441;-52
2021/01/31 08:35:57;;;;;;;9.50;5.30;;;-4.10;99.90;;;;;;4960278;29;20429;-51
2021/01/31 08:38:35;;;;;;;9.13;5.47;;;-4.00;99.90;;;;;;4960193;29;20452;-49
2021/01/31 08:41:33;;;;;;;9.33;5.10;;;-4.00;99.90;;;;;;4959504;29;20429;-55
2021/01/31 08:44:38;;;;;;;8.90;5.70;;;-3.80;99.90;;;;;;4964331;29;20472;-53
2021/01/31 08:47:06;;;;;;;11.20;5.07;;;-3.80;99.90;;;;;;4959720;29;20472;-50
2021/01/31 08:49:33;;;;;;;15.83;6.70;;;-3.50;99.90;;;;;;4955688;29;20452;-52
2021/01/31 08:52:01;;;;;;;15.00;7.77;;;-2.50;99.90;;;;;;4972577;29;20469;-54
2021/01/31 08:54:28;;;;;;;18.53;7.07;;;-2.60;99.90;;;;;;4959832;29;20459;-50
2021/01/31 08:57:01;;;;;;;14.10;6.90;;;-2.60;99.90;;;;;;4959602;29;20429;-48
2021/01/31 08:59:31;;;;;;;13.27;6.30;;;-2.80;99.90;;;;;;4960060;29;20429;-48
2021/01/31 09:02:11;;;;;;;12.67;7.60;;;-2.90;99.90;;;;;;4959741;29;20444;-51
2021/01/31 09:04:39;;;;;;;11.53;5.80;;;-2.90;99.90;;;;;;4959837;28;20468;-48
2021/01/31 09:07:06;;;;;;;7.67;4.87;;;-2.90;99.90;;;;;;4959340;29;20484;-54
2021/01/31 09:09:36;;;;;;;11.93;7.10;;;-2.90;99.90;;;;;;4959168;29;20499;-49
2021/01/31 09:12:05;;;;;;;14.37;6.57;;;-2.80;99.90;;;;;;4961147;29;20449;-50
2021/01/31 09:14:34;;;;;;;13.13;7.00;;;-2.80;99.90;;;;;;4955443;29;20433;-48
2021/01/31 09:17:02;;;;;;;10.00;5.43;;;-2.80;99.90;;;;;;4959799;28;20459;-48
2021/01/31 09:19:29;;;;;;;11.17;6.03;;;-2.70;99.90;;;;;;4960402;28;20417;-54
2021/01/31 09:22:01;;;;;;;12.20;6.73;;;-2.60;99.90;;;;;;4960413;29;20448;-50
2021/01/31 09:24:31;;;;;;;13.50;7.27;;;-2.50;99.90;;;;;;4960742;28;20475;-58
2021/01/31 09:26:58;;;;;;;9.30;5.30;;;-2.40;99.90;;;;;;4960211;28;20951;-57
2021/01/31 09:29:46;;;;;;;10.50;6.67;;;-2.40;99.90;;;;;;4959769;29;20497;-56
2021/01/31 09:32:19;;;;;;;9.20;5.10;;;-2.20;99.90;;;;;;4959018;29;20447;-59
2021/01/31 09:34:47;;;;;;;9.93;7.00;;;-2.10;99.90;;;;;;4960131;29;20432;-55
2021/01/31 09:37:21;;;;;;;12.10;6.30;;;-1.90;99.90;;;;;;4960111;29;20536;-57
2021/01/31 09:39:49;;;;;;;15.13;7.60;;;-1.80;99.90;;;;;;4968647;29;20435;-57
2021/01/31 09:42:16;;;;;;;13.80;8.00;;;-1.70;99.90;;;;;;4970851;29;20443;-48
2021/01/31 09:44:51;;;;;;;14.17;7.10;;;-1.60;99.90;;;;;;4964335;29;20503;-49
2021/01/31 09:47:20;;;;;;;9.37;6.17;;;-1.40;99.90;;;;;;4958840;29;20444;-53
2021/01/31 09:49:52;;;;;;;13.63;7.30;;;-1.30;99.90;;;;;;4958299;29;20436;-55
2021/01/31 09:52:18;;;;;;;8.67;5.30;;;-0.50;99.90;;;;;;4958996;29;20445;-50
2021/01/31 09:54:44;;;;;;;10.67;6.20;;;0.90;99.90;;;;;;4956204;29;20437;-55
2021/01/31 09:57:31;;;;;;;9.00;5.97;;;2.80;99.90;;;;;;4955611;29;20448;-54
2021/01/31 10:00:05;;;;;;;9.23;5.67;;;4.70;99.90;;;;;;4952684;29;20424;-52
2021/01/31 10:02:34;;;;;;;11.60;6.93;;;6.00;99.90;;;;;;4948811;29;20491;-53
2021/01/31 10:05:03;;;;;;;13.90;8.53;;;7.40;99.90;;;;;;4944618;29;20483;-54
2021/01/31 10:07:32;;;;;;;17.50;10.83;;;8.40;92.80;;;;;;4944852;29;20483;-52
2021/01/31 10:09:59;;;;;;;12.20;7.03;;;9.10;84.60;;;;;;4945371;29;20528;-54
2021/01/31 10:12:30;;;;;;;13.03;7.43;;;9.50;78.70;;;;;;4944860;29;20499;-54
2021/01/31 10:14:58;;;;;;;12.33;8.20;;;10.00;71.90;;;;;;4940518;29;20436;-53
2021/01/31 10:17:40;;;;;;;13.53;8.53;;;10.50;70.10;;;;;;4944136;29;20487;-55
2021/01/31 10:20:32;;;;;;;9.97;6.67;;;10.80;66.00;;;;;;4939485;29;20452;-54
2021/01/31 10:23:02;;;;;;;11.90;7.30;;;10.90;61.50;;;;;;4941827;29;20844;-53
2021/01/31 10:25:29;;;;;;;10.00;6.60;;;11.20;61.00;;;;;;4940376;29;20489;-48
2021/01/31 10:27:58;;;;;;;10.20;7.50;;;11.50;59.00;;;;;;4939429;29;20860;-50
2021/01/31 10:30:28;;;;;;;10.33;8.00;;;11.70;58.80;;;;;;4938652;29;20480;-53
2021/01/31 10:32:55;;;;;;;9.83;7.00;;;11.90;57.10;;;;;;4939045;29;20483;-56
2021/01/31 10:35:33;;;;;;;10.13;7.70;;;12.10;56.50;;;;;;4941595;29;20462;-50
2021/01/31 10:38:21;;;;;;;8.97;6.67;;;12.30;54.90;;;;;;4938546;29;20445;-52
2021/01/31 10:40:47;;;;;;;9.07;5.87;;;12.20;54.70;;;;;;4941837;29;20527;-53
2021/01/31 10:43:13;;;;;;;8.57;6.40;;;12.00;55.70;;;;;;4942604;29;20448;-51
2021/01/31 10:45:40;;;;;;;11.33;7.67;;;12.00;54.90;;;;;;4941410;29;20580;-55
2021/01/31 10:48:08;;;;;;;6.93;6.10;;;11.80;54.50;;;;;;4942578;29;20897;-50
2021/01/31 10:50:36;;;;;;;32.93;20.27;;;11.60;54.80;;;;;;4953351;29;20526;-52
2021/01/31 10:53:03;;;;;;;8.60;6.17;;;11.40;55.20;;;;;;4961823;29;20515;-51
2021/01/31 10:55:29;;;;;;;11.33;6.43;;;11.30;54.70;;;;;;4960706;29;20440;-54
2021/01/31 10:57:55;;;;;;;8.90;5.53;;;11.10;54.90;;;;;;4962021;29;20456;-49
2021/01/31 11:00:22;;;;;;;9.23;5.93;;;11.00;56.80;;;;;;4961945;29;20455;-52
2021/01/31 11:02:48;;;;;;;6.33;5.13;;;10.90;55.70;;;;;;4961469;29;20830;-51
2021/01/31 11:05:16;;;;;;;9.40;5.30;;;10.50;55.50;;;;;;4960515;29;20479;-49
2021/01/31 11:07:42;;;;;;;7.70;5.47;;;10.00;55.90;;;;;;4961933;29;20440;-52
2021/01/31 11:10:11;;;;;;;8.23;4.70;;;9.70;57.80;;;;;;4962043;29;20530;-53
2021/01/31 11:12:37;;;;;;;5.63;4.67;;;9.40;57.70;;;;;;4953007;29;20456;-51
2021/01/31 11:15:05;;;;;;;7.60;5.10;;;9.10;58.20;;;;;;4960954;29;20448;-50
2021/01/31 11:17:31;;;;;;;10.93;7.50;;;8.60;59.00;;;;;;4961506;28;20524;-55
2021/01/31 11:19:57;;;;;;;8.47;5.70;;;8.00;60.30;;;;;;4963093;29;20455;-52
2021/01/31 11:22:24;;;;;;;9.80;6.20;;;7.30;63.20;;;;;;4963095;29;20447;-51
2021/01/31 11:24:51;;;;;;;7.10;4.73;;;6.50;66.50;;;;;;4962339;29;20511;-52
2021/01/31 12:11:19;;;;;;;9.00;5.13;;;2.20;99.90;;;;;;5255530;23;20478;-50
2021/01/31 12:13:46;;;;;;;10.23;5.23;;;2.10;99.90;;;;;;4972900;29;20448;-52
2021/01/31 12:16:12;;;;;;;6.13;4.07;;;2.20;99.90;;;;;;4967412;29;20468;-47
2021/01/31 12:18:38;;;;;;;11.93;4.73;;;2.20;99.90;;;;;;4972513;29;20458;-50
2021/01/31 12:21:04;;;;;;;7.60;4.87;;;2.10;99.90;;;;;;4974072;29;20440;-50
2021/01/31 12:23:31;;;;;;;9.53;5.03;;;2.10;99.90;;;;;;4975628;29;20523;-52
2021/01/31 12:25:58;;;;;;;10.37;5.40;;;2.00;99.90;;;;;;5377639;23;20489;-54
2021/01/31 12:28:25;;;;;;;11.73;6.80;;;2.00;99.90;;;;;;4960093;29;20516;-51
2021/01/31 12:30:51;;;;;;;7.60;5.80;;;2.10;99.90;;;;;;4960531;28;20460;-54
2021/01/31 12:33:18;;;;;;;7.80;4.63;;;2.10;99.90;;;;;;4960036;29;20538;-53
2021/01/31 12:35:44;;;;;;;6.07;4.60;;;2.20;99.90;;;;;;4952829;29;20463;-52
2021/01/31 12:38:10;;;;;;;7.00;4.20;;;2.20;99.90;;;;;;4955383;29;20429;-54
2021/01/31 12:40:37;;;;;;;7.40;4.30;;;2.20;99.90;;;;;;4958853;29;20508;-49
2021/01/31 12:43:03;;;;;;;8.47;5.00;;;2.20;99.90;;;;;;4958310;29;20443;-49
2021/01/31 12:45:30;;;;;;;6.30;4.30;;;2.20;99.90;;;;;;4959364;29;20471;-53
2021/01/31 12:47:57;;;;;;;7.23;4.97;;;2.20;99.90;;;;;;4952559;29;20455;-49
2021/01/31 12:50:48;;;;;;;7.80;4.63;;;2.20;99.90;;;;;;4957738;29;20436;-52
2021/01/31 12:53:15;;;;;;;6.73;4.93;;;2.20;99.90;;;;;;4950614;29;20437;-52
2021/01/31 12:55:41;;;;;;;7.50;4.67;;;2.30;99.90;;;;;;4955295;29;20452;-57
2021/01/31 12:58:07;;;;;;;8.00;4.27;;;2.20;99.90;;;;;;4958118;29;20481;-53
2021/01/31 13:00:34;;;;;;;5.17;3.47;;;2.30;99.90;;;;;;4951472;29;20433;-50
2021/01/31 13:03:01;;;;;;;7.83;5.07;;;2.30;99.90;;;;;;4959318;29;20488;-51
2021/01/31 13:05:30;;;;;;;8.27;4.77;;;2.20;99.90;;;;;;4959740;29;20592;-50
2021/01/31 13:07:57;;;;;;;10.20;5.00;;;2.30;99.90;;;;;;4959536;29;20461;-56
2021/01/31 13:10:24;;;;;;;6.40;4.70;;;2.30;99.90;;;;;;4956496;29;20452;-54
2021/01/31 13:12:50;;;;;;;7.73;4.83;;;2.30;99.90;;;;;;4959469;29;20459;-53
2021/01/31 13:15:17;;;;;;;14.93;6.67;;;2.30;99.90;;;;;;4962681;29;20484;-52
2021/01/31 13:17:44;;;;;;;7.30;5.70;;;2.30;99.90;;;;;;4964384;29;20807;-52
2021/01/31 13:20:13;;;;;;;8.53;4.83;;;2.20;99.90;;;;;;4958279;29;20468;-49
2021/01/31 13:22:40;;;;;;;7.20;4.67;;;2.10;99.90;;;;;;4958639;29;20440;-48
2021/01/31 13:25:08;;;;;;;10.23;6.23;;;2.10;99.90;;;;;;4956050;29;20557;-54
2021/01/31 13:27:35;;;;;;;10.07;6.10;;;2.10;99.90;;;;;;4953445;29;20476;-50
2021/01/31 13:30:02;;;;;;;10.37;5.53;;;2.00;99.90;;;;;;4956879;29;20520;-50
2021/01/31 13:32:29;;;;;;;10.30;5.43;;;2.00;99.90;;;;;;4953306;29;20507;-51
2021/01/31 13:34:56;;;;;;;7.63;4.30;;;2.00;99.90;;;;;;4951830;29;20441;-53
2021/01/31 13:37:22;;;;;;;8.90;5.13;;;2.10;99.90;;;;;;4952098;29;20455;-50
2021/01/31 13:39:48;;;;;;;10.57;5.27;;;2.10;99.90;;;;;;4951605;29;20479;-49
2021/01/31 13:42:14;;;;;;;7.10;4.83;;;2.10;99.90;;;;;;4951684;29;20457;-55
2021/01/31 13:44:41;;;;;;;8.77;6.00;;;2.10;99.90;;;;;;4946299;29;20517;-53
2021/01/31 13:47:08;;;;;;;11.30;5.97;;;2.20;99.90;;;;;;4946304;29;20454;-50
2021/01/31 13:49:34;;;;;;;10.70;5.50;;;2.10;99.90;;;;;;4953723;29;20448;-49
2021/01/31 13:52:01;;;;;;;6.57;4.50;;;2.10;99.90;;;;;;4954522;29;20453;-51